createdAt,value
2022-10-01T00:02:50.816Z,-23.7
2022-10-01T00:08:09.305Z,-23.8
2022-10-01T00:18:48.083Z,-23.7
2022-10-01T00:24:07.330Z,-22.8
2022-10-01T00:29:27.049Z,-23.1
2022-10-01T00:34:45.022Z,-23.7
2022-10-01T00:40:04.749Z,-23.9
2022-10-01T00:45:25.142Z,-23.6
2022-10-01T00:50:43.532Z,-23.3
2022-10-01T01:02:38.171Z,-23.5
2022-10-01T01:06:53.477Z,-23
2022-10-01T01:12:02.815Z,-23.8
2022-10-01T01:17:21.757Z,-23.4
2022-10-01T01:22:41.855Z,-23.7
2022-10-01T01:28:00.505Z,-23.6
2022-10-01T01:33:19.664Z,-23.5
2022-10-01T01:43:58.902Z,-23.6
2022-10-01T01:49:17.050Z,-23.7
2022-10-01T01:54:36.995Z,-23.2
2022-10-01T01:59:55.259Z,-23.6
2022-10-01T02:11:49.310Z,-23.7
2022-10-01T02:15:54.357Z,-23.8
2022-10-01T02:26:32.354Z,-24.7
2022-10-01T02:31:51.324Z,-23.6
2022-10-01T02:42:30.446Z,-23.6
2022-10-01T02:47:57.026Z,-24
2022-10-01T02:53:08.258Z,-23.6
2022-10-01T02:58:27.452Z,-23.8
2022-10-01T03:03:47.746Z,-23.6
2022-10-01T03:09:05.995Z,-23.4
2022-10-01T03:14:25.320Z,-27.7
2022-10-01T03:25:04.657Z,-24.1
2022-10-01T03:30:23.544Z,-23.7
2022-10-01T03:35:42.931Z,-24.3
2022-10-01T03:46:21.784Z,-23.6
2022-10-01T03:51:41.060Z,-28
2022-10-01T03:57:00.382Z,-23.8
2022-10-01T04:02:19.966Z,-24
2022-10-01T04:07:38.820Z,-24.1
2022-10-01T04:12:58.173Z,-23.7
2022-10-01T04:18:17.399Z,-24
2022-10-01T04:28:55.150Z,-24.1
2022-10-01T04:34:14.271Z,-23.8
2022-10-01T04:39:33.076Z,-23.8
2022-10-01T04:44:51.839Z,-23.7
2022-10-01T04:50:11.049Z,-24
2022-10-01T04:55:30.240Z,-23.7
2022-10-01T05:00:49.556Z,-23.6
2022-10-01T05:11:28.320Z,-23.8
2022-10-01T05:16:47.937Z,-24.4
2022-10-01T05:27:25.831Z,-24.4
2022-10-01T05:32:45.243Z,-24.5
2022-10-01T05:38:04.723Z,-24.6
2022-10-01T05:44:38.930Z,-24.3
2022-10-01T05:48:55.525Z,-24.6
2022-10-01T05:54:04.887Z,-24.7
2022-10-01T05:59:24.861Z,-24.7
2022-10-01T06:10:00.711Z,-23.6
2022-10-01T06:15:18.525Z,-22.1
2022-10-01T06:20:37.928Z,-21.6
2022-10-01T06:25:58.339Z,-21.2
2022-10-01T06:36:36.219Z,-22.1
2022-10-01T06:41:54.685Z,-22.4
2022-10-01T06:52:33.613Z,-18.79
2022-10-01T06:57:51.678Z,-16.6
2022-10-01T07:03:10.547Z,-17
2022-10-01T07:08:30.308Z,-15.2
2022-10-01T07:19:08.148Z,-11.2
2022-10-01T07:24:26.515Z,-10.3
2022-10-01T07:35:05.111Z,-4.1
2022-10-01T07:40:25.372Z,-10.8
2022-10-01T07:45:44.304Z,-6.3
2022-10-01T07:51:03.791Z,-7.2
2022-10-01T08:02:58.151Z,-8.39
2022-10-01T08:07:01.675Z,-5.2
2022-10-01T08:17:40.081Z,15
2022-10-01T08:22:59.778Z,16.6
2022-10-01T08:29:33.947Z,22.1
2022-10-01T08:33:48.528Z,11.5
2022-10-01T08:38:57.923Z,4.1
2022-10-01T08:44:16.668Z,17.4
2022-10-01T08:49:36.216Z,7
2022-10-01T08:54:55.038Z,12.7
2022-10-01T09:00:14.861Z,7.9
2022-10-01T09:05:33.274Z,13.3
2022-10-01T09:17:27.790Z,10.1
2022-10-01T09:21:31.762Z,20.9
2022-10-01T09:28:58.097Z,34.09
2022-10-01T09:39:36.672Z,44.1
2022-10-01T09:44:55.569Z,56
2022-10-01T09:50:14.654Z,26.3
2022-10-01T10:04:06.368Z,19
2022-10-01T10:06:11.559Z,24.5
2022-10-01T10:18:28.510Z,38.9
2022-10-01T10:22:09.560Z,26.6
2022-10-01T10:27:27.877Z,40.3
2022-10-01T10:34:26.458Z,54.8
2022-10-01T10:38:06.550Z,52.6
2022-10-01T10:45:40.451Z,84.7
2022-10-01T10:49:20.549Z,81.6
2022-10-01T10:54:04.581Z,77
2022-10-01T11:00:38.767Z,68.19
2022-10-01T11:17:43.732Z,34.9
2022-10-01T11:31:19.372Z,53.6
2022-10-01T11:41:57.992Z,49.4
2022-10-01T11:50:31.064Z,108.1
2022-10-01T11:54:47.580Z,59
2022-10-01T12:03:15.591Z,37.5
2022-10-01T12:35:08.655Z,9.5
2022-10-01T12:40:27.943Z,5
2022-10-01T12:45:47.289Z,1.5
2022-10-01T12:51:05.122Z,-3.4
2022-10-01T13:01:44.641Z,13
2022-10-01T13:08:18.753Z,5.3
2022-10-01T13:17:43.786Z,28.2
2022-10-01T13:23:01.673Z,9.6
2022-10-01T13:30:00.366Z,-0.1
2022-10-01T13:47:33.822Z,43.8
2022-10-01T13:56:06.869Z,27.3
2022-10-01T14:05:36.926Z,36.5
2022-10-01T14:10:56.130Z,64.19
2022-10-01T14:16:15.651Z,55.1
2022-10-01T14:21:33.174Z,-2.7
2022-10-01T14:26:52.353Z,-2.2
2022-10-01T14:32:11.664Z,-8.3
2022-10-01T14:38:45.873Z,6.3
2022-10-01T14:42:51.394Z,16
2022-10-01T14:51:24.407Z,16.1
2022-10-01T14:58:48.265Z,19
2022-10-01T15:10:41.434Z,31.1
2022-10-01T15:14:46.313Z,19.9
2022-10-01T15:25:32.886Z,21.7
2022-10-01T15:30:43.016Z,25.6
2022-10-01T15:37:17.214Z,14.6
2022-10-01T15:41:31.354Z,-3.5
2022-10-01T15:46:40.612Z,-11.3
2022-10-01T15:52:00.346Z,-10.9
2022-10-01T15:57:19.298Z,-12.2
2022-10-01T16:03:53.453Z,-14.6
2022-10-01T16:13:19.148Z,-18.9
2022-10-01T16:21:52.205Z,-21.8
2022-10-01T16:26:06.793Z,-23.9
2022-10-01T16:29:40.329Z,-25.1
2022-10-01T16:36:14.497Z,-25.3
2022-10-01T16:39:54.903Z,-25.9
2022-10-01T16:48:28.007Z,-24.7
2022-10-01T17:01:11.271Z,-24
2022-10-01T17:06:30.094Z,-24.8
2022-10-01T17:13:04.321Z,-24.5
2022-10-01T17:22:28.333Z,-24.8
2022-10-01T17:27:47.704Z,-24.6
2022-10-01T17:33:05.603Z,-24.7
2022-10-01T17:43:43.883Z,-24.3
2022-10-01T17:49:03.416Z,-23.8
2022-10-01T17:59:41.050Z,-24
2022-10-01T18:05:01.056Z,-24.2
2022-10-01T18:10:20.753Z,-23.8
2022-10-01T18:15:40.133Z,-26.5
2022-10-01T18:26:18.100Z,-24
2022-10-01T18:31:37.480Z,-23.9
2022-10-01T18:42:15.996Z,-24.3
2022-10-01T18:48:50.153Z,-23.7
2022-10-01T18:52:55.104Z,-24.4
2022-10-01T18:58:12.865Z,-24
2022-10-01T19:08:51.798Z,-23.6
2022-10-01T19:14:10.899Z,-23.9
2022-10-01T19:24:48.634Z,-24
2022-10-01T19:30:08.041Z,-24.6
2022-10-01T19:35:27.785Z,-24.2
2022-10-01T19:40:47.373Z,-24.3
2022-10-01T19:46:06.343Z,-24.5
2022-10-01T19:51:25.912Z,-24.1
2022-10-01T19:56:44.074Z,-24.4
2022-10-01T20:08:38.538Z,-24.3
2022-10-01T20:12:44.306Z,-24.2
2022-10-01T20:23:21.576Z,-24
2022-10-01T20:33:59.747Z,-24.4
2022-10-01T20:39:20.018Z,-24.2
2022-10-01T20:49:58.026Z,-23.9
2022-10-01T20:55:17.880Z,-24.1
2022-10-01T21:00:36.520Z,-23.9
2022-10-01T21:05:56.580Z,-23.9
2022-10-01T21:12:30.684Z,-23.9
2022-10-01T21:21:55.682Z,-24.1
2022-10-01T21:32:33.263Z,-28.6
2022-10-01T21:48:32.634Z,-24.2
2022-10-01T21:53:52.355Z,-24.2
2022-10-01T21:59:12.018Z,-23.9
2022-10-01T22:04:31.791Z,-24.4
2022-10-01T22:15:10.012Z,-24.1
2022-10-01T22:20:28.363Z,-24.6
2022-10-01T22:27:26.945Z,-24.7
2022-10-01T22:31:06.268Z,-24.4
2022-10-01T22:38:40.950Z,-24.5
2022-10-01T22:47:05.435Z,-23.5
2022-10-01T22:52:22.804Z,-24.7
2022-10-01T22:57:43.133Z,-24.2
2022-10-01T23:03:01.927Z,-24.2
2022-10-01T23:09:36.110Z,-24.6
2022-10-01T23:13:41.015Z,-24.4
2022-10-01T23:18:59.827Z,-24.7
2022-10-01T23:41:24.827Z,-24
2022-10-01T23:45:34.181Z,-24.1
2022-10-01T23:50:53.414Z,-24.8
2022-10-01T23:56:11.943Z,-24.1
